Time;durP1;ratioP1;P1;durP2;ratioP2;P2;SDS_P1;SDS_P2;PMS_P1;PMS_P2;Temp;Humidity;BMP_temperature;BMP_pressure;BME280_temperature;BME280_humidity;BME280_pressure;Samples;Min_cycle;Max_cycle;Signal;HPM_P1;HPM_P2
2024/03/18 00:00:21;;;;;;;34.72;24.92;;;13.40;99.90;;;;;;6307121;22;20019;-66
2024/03/18 00:02:49;;;;;;;33.13;25.10;;;13.40;99.90;;;;;;6306658;22;20473;-66
2024/03/18 00:05:17;;;;;;;35.78;27.25;;;13.40;99.90;;;;;;6306829;22;20336;-66
2024/03/18 00:07:44;;;;;;;33.85;26.35;;;13.40;99.90;;;;;;6307039;22;20041;-66
2024/03/18 00:10:12;;;;;;;34.42;25.67;;;13.30;99.90;;;;;;6306724;22;20003;-66
2024/03/18 00:12:42;;;;;;;33.00;26.52;;;13.40;99.90;;;;;;6306983;22;20082;-66
2024/03/18 00:15:10;;;;;;;34.05;27.30;;;13.30;99.90;;;;;;6306637;22;20006;-66
2024/03/18 00:17:36;;;;;;;35.60;26.85;;;13.30;99.90;;;;;;6306919;22;20015;-66
2024/03/18 00:20:05;;;;;;;37.90;26.40;;;13.30;99.90;;;;;;6306529;22;20015;-66
2024/03/18 00:22:31;;;;;;;43.05;26.55;;;13.30;99.90;;;;;;6307676;22;20378;-65
2024/03/18 00:24:57;;;;;;;36.00;26.27;;;13.30;99.90;;;;;;6307945;22;20363;-65
2024/03/18 00:27:23;;;;;;;36.97;24.77;;;13.20;99.90;;;;;;6306926;22;19995;-66
2024/03/18 00:29:57;;;;;;;38.15;26.52;;;13.20;99.90;;;;;;6307640;22;20026;-66
2024/03/18 00:36:12;;;;;;;31.08;25.48;;;13.20;99.90;;;;;;6183982;23;20017;-66
2024/03/18 00:49:46;;;;;;;34.10;25.55;;;13.10;99.90;;;;;;6183936;23;20016;-66
2024/03/18 00:52:35;;;;;;;31.70;25.27;;;13.10;99.90;;;;;;6183493;23;20011;-66
2024/03/18 00:55:01;;;;;;;34.45;26.02;;;13.10;99.90;;;;;;6156038;23;20353;-66
2024/03/18 00:57:27;;;;;;;31.90;24.58;;;13.10;99.90;;;;;;6182572;23;20019;-65
2024/03/18 00:59:53;;;;;;;33.63;25.80;;;13.10;99.90;;;;;;6244105;22;20388;-65
2024/03/18 01:02:19;;;;;;;30.48;24.38;;;13.20;99.90;;;;;;6280656;22;20030;-66
2024/03/18 01:04:44;;;;;;;28.88;23.08;;;13.20;99.90;;;;;;6308230;22;20006;-66
2024/03/18 01:07:10;;;;;;;30.65;24.17;;;13.20;99.90;;;;;;6308588;22;19999;-66
2024/03/18 01:09:37;;;;;;;31.52;23.50;;;13.20;99.90;;;;;;6307759;22;20426;-66
2024/03/18 01:12:04;;;;;;;26.02;22.08;;;13.20;99.90;;;;;;6308263;22;20447;-65
2024/03/18 01:14:30;;;;;;;30.55;24.10;;;13.20;99.90;;;;;;6308637;22;20393;-66
2024/03/18 01:16:57;;;;;;;32.75;24.80;;;13.20;99.90;;;;;;6307858;22;19999;-65
2024/03/18 01:19:23;;;;;;;30.27;22.95;;;13.20;99.90;;;;;;6307781;22;20523;-66
2024/03/18 01:21:49;;;;;;;29.27;22.38;;;13.10;99.90;;;;;;6308099;22;20011;-65
2024/03/18 01:24:15;;;;;;;30.95;23.73;;;13.10;99.90;;;;;;6307839;22;20000;-66
2024/03/18 01:26:41;;;;;;;30.40;22.42;;;13.10;99.90;;;;;;6308194;22;20448;-66
2024/03/18 01:29:07;;;;;;;32.70;23.58;;;13.10;99.90;;;;;;6307829;22;19999;-66
2024/03/18 01:31:33;;;;;;;28.35;22.35;;;13.10;99.90;;;;;;6307825;22;19999;-65
2024/03/18 01:34:04;;;;;;;30.52;22.60;;;13.00;99.90;;;;;;6307473;22;20002;-64
2024/03/18 01:36:32;;;;;;;34.55;22.83;;;13.00;99.90;;;;;;6307818;22;20007;-66
2024/03/18 01:38:57;;;;;;;33.30;23.25;;;13.00;99.90;;;;;;6308177;22;20007;-66
2024/03/18 01:41:23;;;;;;;28.92;21.90;;;13.00;99.90;;;;;;6307574;22;20137;-65
2024/03/18 01:43:49;;;;;;;28.67;22.73;;;13.00;99.90;;;;;;6308078;22;20425;-66
2024/03/18 01:46:16;;;;;;;27.92;22.35;;;13.00;99.90;;;;;;6280316;22;20039;-66
2024/03/18 01:48:44;;;;;;;32.20;23.45;;;12.90;99.90;;;;;;6280477;22;20425;-65
2024/03/18 01:51:10;;;;;;;28.83;24.48;;;12.80;99.90;;;;;;6307424;22;20037;-66
2024/03/18 01:53:36;;;;;;;29.85;23.17;;;12.80;99.90;;;;;;6307382;22;20001;-66
2024/03/18 01:56:04;;;;;;;30.38;23.63;;;12.70;99.90;;;;;;6308818;22;20481;-66
2024/03/18 01:58:30;;;;;;;29.10;22.98;;;12.60;99.90;;;;;;6305731;22;20094;-65
2024/03/18 02:00:56;;;;;;;29.27;22.80;;;12.60;99.90;;;;;;6304975;22;20045;-66
2024/03/18 02:03:23;;;;;;;35.80;24.27;;;12.60;99.90;;;;;;6305011;22;20082;-66
2024/03/18 02:05:49;;;;;;;34.10;23.77;;;12.50;99.90;;;;;;6307441;22;20007;-66
2024/03/18 02:09:04;;;;;;;30.45;24.65;;;12.50;99.90;;;;;;6307648;22;20006;-66
2024/03/18 02:11:45;;;;;;;32.38;23.83;;;12.50;99.90;;;;;;6130504;23;20667;-65
2024/03/18 02:24:38;;;;;;;27.27;22.67;;;12.50;99.90;;;;;;6123747;23;20464;-66
2024/03/18 02:28:00;;;;;;;28.92;23.20;;;12.40;99.90;;;;;;6183206;23;20050;-66
2024/03/18 02:30:31;;;;;;;33.50;25.00;;;12.40;99.90;;;;;;6238262;22;20104;-66
2024/03/18 02:32:57;;;;;;;29.20;23.90;;;12.40;99.90;;;;;;6275421;22;20318;-65
2024/03/18 02:35:23;;;;;;;29.25;23.77;;;12.40;99.90;;;;;;6275051;22;20330;-66
2024/03/18 02:37:49;;;;;;;30.63;24.38;;;12.40;99.90;;;;;;6276506;22;20373;-66
2024/03/18 02:40:15;;;;;;;34.10;24.80;;;12.40;99.90;;;;;;6276053;22;20008;-66
2024/03/18 02:42:41;;;;;;;31.20;23.70;;;12.40;99.90;;;;;;6276345;22;19996;-66
2024/03/18 02:45:12;;;;;;;32.78;23.42;;;12.40;99.90;;;;;;6276225;22;20321;-66
2024/03/18 02:47:38;;;;;;;35.05;23.77;;;12.40;99.90;;;;;;6276608;22;20426;-65
2024/03/18 02:50:06;;;;;;;38.25;25.45;;;12.30;99.90;;;;;;6248862;22;20337;-65
2024/03/18 02:52:33;;;;;;;34.45;24.63;;;12.30;99.90;;;;;;6275659;22;20353;-65
2024/03/18 02:54:59;;;;;;;34.05;24.02;;;12.30;99.90;;;;;;6276505;22;20042;-65
2024/03/18 02:57:25;;;;;;;31.25;24.73;;;12.30;99.90;;;;;;6276001;22;20426;-65
2024/03/18 02:59:51;;;;;;;35.83;23.88;;;12.30;99.90;;;;;;6274916;22;20011;-66
2024/03/18 03:02:17;;;;;;;37.20;24.67;;;12.30;99.90;;;;;;6275837;22;20006;-65
2024/03/18 03:04:42;;;;;;;32.53;22.75;;;12.20;99.90;;;;;;6276195;22;20006;-66
2024/03/18 03:07:10;;;;;;;35.05;23.33;;;12.20;99.90;;;;;;6276267;22;20003;-66
2024/03/18 03:09:36;;;;;;;29.83;23.50;;;12.20;99.90;;;;;;6276264;22;20418;-66
2024/03/18 03:12:02;;;;;;;32.15;23.40;;;12.20;99.90;;;;;;6275913;22;20006;-66
2024/03/18 03:14:28;;;;;;;28.58;23.92;;;12.20;99.90;;;;;;6276252;22;19995;-65
2024/03/18 03:16:55;;;;;;;31.10;23.40;;;12.20;99.90;;;;;;6275974;22;20027;-66
2024/03/18 03:19:21;;;;;;;35.70;23.75;;;12.20;99.90;;;;;;6276841;22;20378;-65
2024/03/18 03:21:47;;;;;;;30.10;23.50;;;12.10;99.90;;;;;;6306689;22;20003;-65
2024/03/18 03:24:13;;;;;;;33.20;23.77;;;12.10;99.90;;;;;;6306786;22;20000;-66
2024/03/18 03:26:39;;;;;;;35.83;25.10;;;12.10;99.90;;;;;;6306907;22;19999;-65
2024/03/18 03:29:05;;;;;;;29.27;23.70;;;12.10;99.90;;;;;;6306896;22;20034;-66
2024/03/18 03:31:30;;;;;;;33.15;24.63;;;12.10;99.90;;;;;;6307262;22;20318;-66
2024/03/18 03:33:56;;;;;;;35.10;23.90;;;12.00;99.90;;;;;;6307200;22;20010;-66
2024/03/18 03:36:22;;;;;;;39.05;24.42;;;12.00;99.90;;;;;;6307736;22;20034;-66
2024/03/18 03:38:48;;;;;;;30.55;23.88;;;12.00;99.90;;;;;;6307646;22;20038;-65
2024/03/18 03:41:13;;;;;;;30.67;23.70;;;12.00;99.90;;;;;;6307833;22;20065;-65
2024/03/18 03:48:27;;;;;;;27.75;23.75;;;11.90;99.90;;;;;;6182843;23;20356;-66
2024/03/18 04:01:52;;;;;;;33.03;22.17;;;11.70;99.90;;;;;;6093815;23;20028;-66
2024/03/18 04:05:07;;;;;;;31.45;22.23;;;11.70;99.90;;;;;;6108448;23;20116;-66
2024/03/18 04:07:55;;;;;;;29.08;21.75;;;11.70;99.90;;;;;;6080874;23;20090;-65
2024/03/18 04:10:21;;;;;;;30.27;21.25;;;11.70;99.90;;;;;;6095755;23;20053;-65
2024/03/18 04:12:47;;;;;;;26.88;20.67;;;11.70;99.90;;;;;;6172662;23;20335;-66
2024/03/18 04:15:13;;;;;;;25.20;20.67;;;11.70;99.90;;;;;;6256679;22;20007;-66
2024/03/18 04:17:39;;;;;;;26.42;20.65;;;11.70;99.90;;;;;;6281230;22;20018;-66
2024/03/18 04:20:18;;;;;;;28.30;22.48;;;11.60;99.90;;;;;;6308708;22;20015;-65
2024/03/18 04:22:47;;;;;;;26.30;22.27;;;11.60;99.90;;;;;;6308889;22;20329;-65
2024/03/18 04:25:13;;;;;;;28.50;21.23;;;11.60;99.90;;;;;;6308412;22;20007;-65
2024/03/18 04:27:40;;;;;;;36.40;21.65;;;11.70;99.90;;;;;;6309119;22;20003;-66
2024/03/18 04:30:06;;;;;;;28.65;21.10;;;11.70;99.90;;;;;;6308704;22;20056;-66
2024/03/18 04:32:32;;;;;;;26.73;20.63;;;11.60;99.90;;;;;;6308631;22;19995;-65
2024/03/18 04:34:58;;;;;;;31.35;21.13;;;11.70;99.90;;;;;;6308869;22;20018;-65
2024/03/18 04:37:24;;;;;;;28.83;22.52;;;11.70;99.90;;;;;;6308560;22;20005;-65
2024/03/18 04:39:49;;;;;;;28.13;22.42;;;11.70;99.90;;;;;;6308291;22;20007;-65
2024/03/18 04:42:15;;;;;;;27.70;22.45;;;11.70;99.90;;;;;;6308444;22;20030;-65
2024/03/18 04:44:41;;;;;;;28.45;21.25;;;11.70;99.90;;;;;;6308232;22;20007;-65
2024/03/18 04:47:06;;;;;;;28.40;21.08;;;11.70;99.90;;;;;;6281146;22;20010;-65
2024/03/18 04:49:32;;;;;;;32.95;20.67;;;11.70;99.90;;;;;;6281609;22;20078;-66
2024/03/18 04:51:58;;;;;;;28.02;21.73;;;11.80;99.90;;;;;;6308383;22;20022;-66
2024/03/18 04:54:23;;;;;;;26.13;21.38;;;11.80;99.90;;;;;;6308616;22;20026;-66
2024/03/18 04:56:49;;;;;;;29.25;21.30;;;11.80;99.90;;;;;;6308442;22;20003;-66
2024/03/18 04:59:15;;;;;;;37.70;21.60;;;11.90;99.90;;;;;;6308262;22;20068;-65
2024/03/18 05:01:41;;;;;;;31.58;21.25;;;11.90;99.90;;;;;;6308293;22;20023;-65
2024/03/18 05:04:07;;;;;;;33.08;22.85;;;11.90;99.90;;;;;;6308362;22;19999;-65
2024/03/18 05:06:32;;;;;;;39.80;22.75;;;11.80;99.90;;;;;;6308494;22;20076;-65
2024/03/18 05:08:58;;;;;;;32.50;22.40;;;11.80;99.90;;;;;;6308800;22;19995;-65
2024/03/18 05:11:24;;;;;;;28.83;21.83;;;11.80;99.90;;;;;;6309193;22;20022;-66
2024/03/18 05:13:50;;;;;;;29.23;22.70;;;11.80;99.90;;;;;;6308955;22;20071;-65
2024/03/18 05:16:15;;;;;;;29.92;21.70;;;11.80;99.90;;;;;;6308866;22;20012;-66
2024/03/18 05:18:41;;;;;;;30.63;23.92;;;11.80;99.90;;;;;;6281372;22;20003;-65
2024/03/18 05:21:07;;;;;;;33.55;22.42;;;11.80;99.90;;;;;;6308311;22;20022;-66
2024/03/18 05:24:47;;;;;;;;;;;;;;;;;;;;;
2024/03/18 05:28:16;;;;;;;37.88;23.23;;;11.70;99.90;;;;;;6183730;23;20100;-65
2024/03/18 05:31:17;;;;;;;33.38;22.67;;;11.70;99.90;;;;;;6065933;23;20091;-66
2024/03/18 05:41:18;;;;;;;28.85;22.20;;;11.70;99.90;;;;;;5952777;24;20535;-66
2024/03/18 05:46:30;;;;;;;28.90;21.48;;;11.70;99.90;;;;;;6213141;23;20036;-65
2024/03/18 05:48:56;;;;;;;29.67;23.63;;;11.70;99.90;;;;;;6292042;22;20091;-66
2024/03/18 05:51:22;;;;;;;30.52;22.65;;;11.70;99.90;;;;;;6308204;22;19999;-66
2024/03/18 05:53:48;;;;;;;29.33;21.85;;;11.70;99.90;;;;;;6308117;22;20007;-66
2024/03/18 05:56:14;;;;;;;27.20;21.90;;;11.70;99.90;;;;;;6308051;22;19996;-66
2024/03/18 05:58:40;;;;;;;31.92;22.83;;;11.80;99.90;;;;;;6307815;22;20003;-66
2024/03/18 06:01:10;;;;;;;37.92;22.52;;;11.90;99.90;;;;;;6307516;22;20047;-66
2024/03/18 06:03:39;;;;;;;39.28;22.25;;;11.90;99.90;;;;;;6307543;22;20026;-66
2024/03/18 06:06:06;;;;;;;40.75;22.23;;;11.90;99.90;;;;;;6307937;22;20344;-65
2024/03/18 06:08:33;;;;;;;27.10;21.10;;;11.90;99.90;;;;;;6307852;22;20065;-65
2024/03/18 06:10:59;;;;;;;26.33;20.88;;;11.90;99.90;;;;;;6307814;22;20008;-65
2024/03/18 06:13:25;;;;;;;29.02;22.13;;;11.90;99.90;;;;;;6307384;22;20007;-65
2024/03/18 06:15:51;;;;;;;31.20;22.25;;;11.90;99.90;;;;;;6307268;22;20027;-65
2024/03/18 06:18:17;;;;;;;33.10;22.70;;;11.90;99.90;;;;;;6307700;22;20432;-65
2024/03/18 06:20:43;;;;;;;74.10;23.90;;;11.90;99.90;;;;;;6307349;22;20043;-65
2024/03/18 06:23:10;;;;;;;49.83;23.67;;;11.90;99.90;;;;;;6307935;22;20011;-65
2024/03/18 06:28:21;;;;;;;38.95;22.88;;;12.00;99.90;;;;;;6307023;22;20081;-65
2024/03/18 06:30:50;;;;;;;27.92;22.23;;;12.00;99.90;;;;;;6307605;22;20078;-65
2024/03/18 06:33:17;;;;;;;31.55;22.05;;;12.00;99.90;;;;;;6306904;22;20004;-65
2024/03/18 06:35:47;;;;;;;41.38;23.67;;;12.00;99.90;;;;;;6306789;22;20046;-65
2024/03/18 06:38:16;;;;;;;33.03;22.60;;;12.10;99.90;;;;;;6307033;22;20007;-65
2024/03/18 06:40:43;;;;;;;37.55;23.10;;;12.10;99.90;;;;;;6307112;22;20046;-66
2024/03/18 06:43:09;;;;;;;39.67;22.02;;;12.20;99.90;;;;;;6307466;22;20011;-65
2024/03/18 06:45:35;;;;;;;34.10;22.85;;;12.20;99.90;;;;;;6307345;22;19999;-65
2024/03/18 06:48:03;;;;;;;36.08;22.85;;;12.20;99.90;;;;;;6307237;22;20066;-65
2024/03/18 06:50:30;;;;;;;37.83;22.42;;;12.30;99.90;;;;;;6307515;22;20007;-65
2024/03/18 06:52:57;;;;;;;48.75;23.63;;;12.30;99.90;;;;;;6307636;22;20003;-65
2024/03/18 06:55:23;;;;;;;32.90;22.05;;;12.40;99.90;;;;;;6307823;22;20078;-65
2024/03/18 06:57:49;;;;;;;48.03;23.70;;;12.40;99.90;;;;;;6277849;22;20105;-65
2024/03/18 07:00:23;;;;;;;39.58;22.05;;;12.40;99.90;;;;;;6306686;22;20338;-65
2024/03/18 07:03:08;;;;;;;51.20;25.05;;;12.50;99.90;;;;;;6305088;22;20007;-65
2024/03/18 07:05:46;;;;;;;50.55;26.10;;;12.50;99.90;;;;;;6306585;22;20052;-65
2024/03/18 07:08:50;;;;;;;51.45;24.70;;;12.60;99.90;;;;;;6306374;22;20003;-65
2024/03/18 07:11:57;;;;;;;37.58;23.58;;;12.50;99.90;;;;;;6157752;23;20020;-65
2024/03/18 07:14:57;;;;;;;58.83;22.80;;;12.60;99.90;;;;;;6177733;23;20355;-65
2024/03/18 07:17:43;;;;;;;37.70;23.92;;;12.60;99.90;;;;;;6303535;22;20064;-65
2024/03/18 07:23:50;;;;;;;48.75;22.40;;;12.70;99.90;;;;;;6306697;22;20018;-66
2024/03/18 07:26:16;;;;;;;37.20;22.45;;;12.70;99.90;;;;;;6279085;22;20345;-66
2024/03/18 07:28:42;;;;;;;35.40;22.83;;;12.80;99.90;;;;;;6307048;22;20031;-66
2024/03/18 07:31:13;;;;;;;36.78;23.73;;;12.80;99.90;;;;;;6307046;22;20361;-66
2024/03/18 07:33:42;;;;;;;34.00;22.25;;;12.80;99.90;;;;;;6306756;22;20057;-66
2024/03/18 07:36:08;;;;;;;35.05;22.13;;;12.90;99.90;;;;;;6306506;22;20025;-66
2024/03/18 07:38:34;;;;;;;45.70;22.92;;;12.90;99.90;;;;;;6307369;22;20010;-66
2024/03/18 07:41:00;;;;;;;36.65;23.33;;;12.90;99.90;;;;;;6308634;22;20057;-65
2024/03/18 07:43:26;;;;;;;27.63;22.33;;;13.00;99.90;;;;;;6308832;22;20000;-65
2024/03/18 07:45:52;;;;;;;30.70;21.73;;;13.00;99.90;;;;;;6309476;22;20016;-66
2024/03/18 07:48:17;;;;;;;34.65;21.60;;;13.10;99.90;;;;;;6308838;22;19995;-66
2024/03/18 07:50:43;;;;;;;31.73;21.02;;;13.10;99.90;;;;;;6306770;22;20010;-66
2024/03/18 07:53:09;;;;;;;32.13;21.20;;;13.20;99.90;;;;;;6306737;22;20056;-66
2024/03/18 07:55:37;;;;;;;29.73;21.00;;;13.30;99.90;;;;;;6308670;22;20463;-66
2024/03/18 07:58:02;;;;;;;30.80;21.90;;;13.30;99.90;;;;;;6308293;22;19999;-65
2024/03/18 08:00:28;;;;;;;36.05;21.60;;;13.30;99.90;;;;;;6309160;22;20022;-65
2024/03/18 08:02:55;;;;;;;30.80;21.75;;;13.30;99.90;;;;;;6309126;22;19995;-66
2024/03/18 08:05:20;;;;;;;33.95;21.73;;;13.40;99.90;;;;;;6308672;22;19995;-66
2024/03/18 08:07:46;;;;;;;30.52;21.08;;;13.40;99.90;;;;;;6308337;22;20034;-66
2024/03/18 08:10:12;;;;;;;27.35;20.67;;;13.50;99.90;;;;;;6308066;22;19995;-66
2024/03/18 08:12:38;;;;;;;29.25;21.45;;;13.50;99.90;;;;;;6308230;22;20004;-66
2024/03/18 08:15:04;;;;;;;31.35;20.75;;;13.50;99.90;;;;;;6308371;22;20000;-65
2024/03/18 08:17:30;;;;;;;27.05;19.75;;;13.60;99.90;;;;;;6308362;22;20013;-66
2024/03/18 08:19:56;;;;;;;22.08;18.60;;;13.60;99.90;;;;;;6308095;22;20094;-66
2024/03/18 08:22:22;;;;;;;27.15;18.38;;;13.70;99.90;;;;;;6308717;22;19999;-66
2024/03/18 08:24:48;;;;;;;22.17;17.48;;;13.70;99.90;;;;;;6309179;22;20000;-66
2024/03/18 08:27:14;;;;;;;28.23;18.25;;;13.80;99.90;;;;;;6309552;22;20006;-66
2024/03/18 08:29:40;;;;;;;25.40;17.73;;;13.80;99.90;;;;;;6308736;22;20356;-66
2024/03/18 08:32:06;;;;;;;22.85;18.77;;;13.80;99.90;;;;;;6309227;22;20007;-65
2024/03/18 08:34:39;;;;;;;22.52;16.85;;;13.80;99.90;;;;;;6309353;22;20348;-66
2024/03/18 08:37:10;;;;;;;23.85;16.08;;;13.90;99.90;;;;;;6306955;22;20057;-65
2024/03/18 08:43:03;;;;;;;23.50;16.00;;;14.00;99.90;;;;;;6182800;23;20013;-65
2024/03/18 08:45:30;;;;;;;27.15;16.85;;;14.10;99.90;;;;;;6183581;23;20313;-65
2024/03/18 08:47:56;;;;;;;24.52;15.32;;;14.10;99.90;;;;;;6241727;22;20011;-65
2024/03/18 08:50:28;;;;;;;19.58;15.10;;;14.20;99.90;;;;;;6307449;22;20006;-65
2024/03/18 08:53:07;;;;;;;20.97;15.57;;;14.30;99.90;;;;;;6308314;22;20333;-65
2024/03/18 08:55:33;;;;;;;17.77;14.73;;;14.30;99.90;;;;;;6254374;22;20086;-65
2024/03/18 08:58:31;;;;;;;22.30;15.63;;;14.30;99.90;;;;;;6307542;22;20038;-65
2024/03/18 09:00:57;;;;;;;19.88;15.60;;;14.40;99.90;;;;;;6244789;22;20019;-66
2024/03/18 09:03:24;;;;;;;21.10;14.95;;;14.40;99.90;;;;;;6308320;22;20074;-65
2024/03/18 09:05:54;;;;;;;18.52;14.82;;;14.40;99.90;;;;;;6308246;22;20326;-65
2024/03/18 09:08:21;;;;;;;24.85;18.00;;;14.50;99.90;;;;;;6308080;22;20078;-66
2024/03/18 09:10:47;;;;;;;27.33;17.25;;;14.50;99.90;;;;;;6306475;22;20061;-65
2024/03/18 09:13:14;;;;;;;20.85;16.20;;;14.60;99.90;;;;;;6308138;22;20038;-65
2024/03/18 09:15:40;;;;;;;26.83;17.88;;;14.70;99.90;;;;;;6307724;22;20007;-65
2024/03/18 09:18:06;;;;;;;21.15;16.58;;;14.70;99.90;;;;;;6307708;22;20307;-65
2024/03/18 09:20:32;;;;;;;24.52;16.15;;;14.80;99.90;;;;;;6307184;22;20069;-65
2024/03/18 09:22:58;;;;;;;21.55;15.48;;;14.80;99.90;;;;;;6307834;22;20488;-65
2024/03/18 09:25:23;;;;;;;21.88;15.80;;;14.90;99.90;;;;;;6307608;22;20003;-65
2024/03/18 09:27:49;;;;;;;21.50;14.48;;;14.90;99.90;;;;;;6307452;22;20015;-66
2024/03/18 09:30:21;;;;;;;21.70;14.88;;;14.90;99.90;;;;;;6308227;22;19999;-66
2024/03/18 09:32:47;;;;;;;20.00;14.20;;;15.00;99.90;;;;;;6305489;22;20474;-67
2024/03/18 09:35:12;;;;;;;17.10;13.20;;;15.00;99.90;;;;;;6302987;22;20026;-67
2024/03/18 09:37:38;;;;;;;17.75;12.65;;;15.00;99.90;;;;;;6303333;22;20010;-67
2024/03/18 09:40:04;;;;;;;17.38;13.20;;;15.00;99.90;;;;;;6304714;22;20038;-67
2024/03/18 09:42:31;;;;;;;17.98;12.82;;;15.00;99.90;;;;;;6278975;22;20026;-67
2024/03/18 09:44:59;;;;;;;20.42;12.63;;;15.00;99.90;;;;;;6306061;22;20007;-67
2024/03/18 09:47:25;;;;;;;17.58;12.60;;;15.00;99.90;;;;;;6306231;22;20078;-67
2024/03/18 09:49:53;;;;;;;20.77;13.45;;;15.00;99.90;;;;;;6307237;22;20003;-67
2024/03/18 09:52:20;;;;;;;16.80;12.23;;;15.00;99.90;;;;;;6307782;22;20031;-67
2024/03/18 09:54:47;;;;;;;18.52;12.75;;;15.00;99.90;;;;;;6306995;22;20562;-68
2024/03/18 09:57:18;;;;;;;17.02;13.75;;;15.00;99.90;;;;;;6307210;22;19995;-67
2024/03/18 09:59:44;;;;;;;19.25;14.60;;;15.10;99.90;;;;;;6280264;22;20018;-67
2024/03/18 10:02:17;;;;;;;23.45;15.40;;;15.10;99.90;;;;;;6307632;22;20003;-67
2024/03/18 10:04:44;;;;;;;18.70;14.57;;;15.10;99.90;;;;;;6308611;22;20065;-67
2024/03/18 10:07:14;;;;;;;19.13;14.18;;;15.10;99.90;;;;;;6308204;22;19999;-67
2024/03/18 10:09:41;;;;;;;18.02;15.32;;;15.10;99.90;;;;;;6308314;22;20011;-68
2024/03/18 10:16:21;;;;;;;22.58;13.70;;;15.10;99.90;;;;;;6183197;23;20546;-66
2024/03/18 10:29:08;;;;;;;21.88;16.80;;;15.10;99.90;;;;;;6008604;23;20491;-66
2024/03/18 10:32:25;;;;;;;24.63;17.50;;;15.10;99.90;;;;;;5999119;23;20011;-66
2024/03/18 10:34:51;;;;;;;20.95;15.60;;;15.10;99.90;;;;;;6007830;23;20008;-66
2024/03/18 10:37:22;;;;;;;22.80;15.25;;;15.10;99.90;;;;;;6059738;23;20108;-66
2024/03/18 10:40:05;;;;;;;22.42;15.68;;;15.10;99.90;;;;;;6194119;22;20629;-66
2024/03/18 10:42:32;;;;;;;22.65;15.77;;;15.00;99.90;;;;;;6275958;22;20011;-65
2024/03/18 10:45:10;;;;;;;22.25;14.63;;;15.00;99.90;;;;;;6275780;22;20319;-65
2024/03/18 10:47:37;;;;;;;24.30;15.10;;;15.00;99.90;;;;;;6275746;22;20011;-65
2024/03/18 10:50:03;;;;;;;22.20;14.70;;;15.00;99.90;;;;;;6275942;22;20014;-66
2024/03/18 10:52:32;;;;;;;21.55;14.30;;;15.00;99.90;;;;;;6276165;22;20373;-66
2024/03/18 10:54:59;;;;;;;19.20;13.70;;;14.90;99.90;;;;;;6275813;22;20369;-66
2024/03/18 10:57:28;;;;;;;21.27;14.05;;;14.90;99.90;;;;;;6276384;22;20341;-66
2024/03/18 10:59:54;;;;;;;24.85;14.23;;;14.90;99.90;;;;;;6276215;22;20000;-66
2024/03/18 11:02:28;;;;;;;22.42;14.00;;;14.80;99.90;;;;;;6276247;22;20071;-66
2024/03/18 11:04:57;;;;;;;17.35;12.63;;;14.80;99.90;;;;;;6276507;22;20027;-66
2024/03/18 11:07:30;;;;;;;15.57;12.07;;;14.80;99.90;;;;;;6276392;22;20011;-66
2024/03/18 11:10:23;;;;;;;19.42;12.73;;;14.80;99.90;;;;;;6276405;22;20352;-66
2024/03/18 11:12:49;;;;;;;21.00;13.90;;;14.80;99.90;;;;;;6270025;22;20342;-66
2024/03/18 11:15:17;;;;;;;17.80;14.10;;;14.80;99.90;;;;;;6275535;22;20007;-65
2024/03/18 11:18:06;;;;;;;22.35;13.90;;;14.80;99.90;;;;;;6299409;22;20025;-65
2024/03/18 11:23:33;;;;;;;22.70;12.73;;;14.70;99.90;;;;;;6338246;22;20064;-66
2024/03/18 11:26:04;;;;;;;16.48;12.65;;;14.70;99.90;;;;;;6338448;22;20005;-66
2024/03/18 11:28:37;;;;;;;17.77;12.80;;;14.70;99.90;;;;;;6310726;22;20346;-66
2024/03/18 11:31:05;;;;;;;18.77;13.38;;;14.80;99.90;;;;;;6338509;22;20359;-66
2024/03/18 11:33:35;;;;;;;19.02;14.90;;;14.70;99.90;;;;;;6338613;22;20323;-66
2024/03/18 11:36:04;;;;;;;20.98;14.82;;;14.70;99.90;;;;;;6338425;22;20007;-66
2024/03/18 11:38:31;;;;;;;22.33;16.10;;;14.70;99.90;;;;;;6339060;22;20006;-66
2024/03/18 11:40:56;;;;;;;20.88;15.10;;;14.70;99.90;;;;;;6338182;22;20389;-66
2024/03/18 11:43:22;;;;;;;23.77;17.58;;;14.70;99.90;;;;;;6338390;22;20018;-66
2024/03/18 11:45:49;;;;;;;30.08;19.10;;;14.70;99.90;;;;;;6338562;22;19998;-66
2024/03/18 11:48:16;;;;;;;26.23;19.65;;;14.80;99.90;;;;;;6338017;22;20007;-66
2024/03/18 11:50:42;;;;;;;27.02;17.67;;;14.80;99.90;;;;;;6338272;22;20456;-66
2024/03/18 11:53:10;;;;;;;22.45;15.60;;;14.90;99.90;;;;;;6338212;22;20006;-65
2024/03/18 11:55:40;;;;;;;20.75;14.98;;;14.90;99.90;;;;;;6337276;22;20060;-66
2024/03/18 11:58:07;;;;;;;20.60;15.90;;;14.90;99.90;;;;;;6338118;22;20448;-66
2024/03/18 12:00:34;;;;;;;25.00;15.48;;;14.90;99.90;;;;;;6338176;22;20069;-65
2024/03/18 12:03:04;;;;;;;21.52;15.18;;;15.00;99.90;;;;;;6338035;22;19999;-65
2024/03/18 12:05:31;;;;;;;19.50;13.25;;;15.00;99.90;;;;;;6338509;22;20009;-66
2024/03/18 12:07:58;;;;;;;16.88;12.35;;;15.10;99.90;;;;;;6337314;22;20002;-65
2024/03/18 12:10:25;;;;;;;18.35;14.52;;;15.10;99.90;;;;;;6310389;22;19999;-65
2024/03/18 12:12:51;;;;;;;19.08;14.15;;;15.10;99.90;;;;;;6337840;22;20033;-65
2024/03/18 12:15:17;;;;;;;15.85;12.05;;;15.20;99.90;;;;;;6338290;22;20054;-65
2024/03/18 12:17:43;;;;;;;18.83;13.23;;;15.20;99.90;;;;;;6337294;22;20019;-66
2024/03/18 12:20:30;;;;;;;19.17;13.55;;;15.20;99.90;;;;;;6337698;22;20026;-65
2024/03/18 12:22:59;;;;;;;17.30;12.55;;;15.20;99.90;;;;;;6338055;22;20003;-65
2024/03/18 12:28:44;;;;;;;18.52;12.45;;;15.30;99.90;;;;;;6340213;22;20144;-65
2024/03/18 12:31:15;;;;;;;17.42;11.93;;;15.30;99.90;;;;;;6340079;22;20003;-65
2024/03/18 12:33:49;;;;;;;20.65;12.07;;;15.30;99.90;;;;;;6340467;22;20003;-65
2024/03/18 12:36:32;;;;;;;16.02;11.32;;;15.30;99.90;;;;;;6340081;22;19999;-66
2024/03/18 12:39:21;;;;;;;;;;;15.30;99.90;;;;;;6340401;22;20363;-65
2024/03/18 12:42:14;;;;;;;16.20;12.40;;;15.30;99.90;;;;;;6338618;22;19907;-65
2024/03/18 12:48:09;;;;;;;20.80;13.20;;;15.30;99.90;;;;;;6291333;22;19928;-65
2024/03/18 12:50:46;;;;;;;18.42;13.25;;;15.30;99.90;;;;;;6275405;22;20376;-66
2024/03/18 12:53:45;;;;;;;17.58;12.90;;;15.30;99.90;;;;;;6340175;22;20010;-65
2024/03/18 12:56:39;;;;;;;17.42;12.63;;;15.30;99.90;;;;;;6327021;22;20003;-65
2024/03/18 12:59:09;;;;;;;18.65;12.80;;;15.30;99.90;;;;;;6338595;22;20030;-65
2024/03/18 13:01:35;;;;;;;16.70;12.80;;;15.30;99.90;;;;;;6339140;22;20007;-65
2024/03/18 13:04:01;;;;;;;19.40;13.40;;;15.30;99.90;;;;;;6339880;22;20056;-65
2024/03/18 13:06:26;;;;;;;25.30;16.67;;;15.30;99.90;;;;;;6339722;22;19999;-65
2024/03/18 13:08:52;;;;;;;25.60;19.15;;;15.30;99.90;;;;;;6339810;22;19995;-65
2024/03/18 13:11:18;;;;;;;24.90;20.15;;;15.30;99.90;;;;;;6339329;22;20019;-64
2024/03/18 13:13:44;;;;;;;25.88;21.05;;;15.20;99.90;;;;;;6339646;22;20422;-65
2024/03/18 13:16:13;;;;;;;31.15;24.30;;;15.20;99.90;;;;;;6339364;22;20006;-65
2024/03/18 13:18:39;;;;;;;32.17;23.77;;;15.20;99.90;;;;;;6339702;22;20014;-65
2024/03/18 13:21:10;;;;;;;31.85;25.50;;;15.20;99.90;;;;;;6339054;22;20376;-65
2024/03/18 13:23:36;;;;;;;32.70;24.83;;;15.20;99.90;;;;;;6339290;22;19999;-65
2024/03/18 13:26:02;;;;;;;30.42;25.27;;;15.10;99.90;;;;;;6339213;22;20010;-64
2024/03/18 13:28:30;;;;;;;31.85;25.27;;;15.10;99.90;;;;;;6338668;22;20428;-65
2024/03/18 13:30:56;;;;;;;34.90;27.10;;;15.10;99.90;;;;;;6339223;22;20397;-65
2024/03/18 13:33:21;;;;;;;34.45;26.02;;;15.10;99.90;;;;;;6339614;22;19999;-64
2024/03/18 13:35:48;;;;;;;39.50;27.38;;;15.10;99.90;;;;;;6339632;22;20011;-65
2024/03/18 13:38:14;;;;;;;36.17;28.92;;;15.10;99.90;;;;;;6311259;22;20109;-66
2024/03/18 13:40:41;;;;;;;38.42;30.38;;;15.10;99.90;;;;;;6339030;22;20010;-65
2024/03/18 13:43:14;;;;;;;40.30;32.60;;;15.00;99.90;;;;;;6338967;22;19995;-66
2024/03/18 13:45:39;;;;;;;43.33;33.40;;;15.00;99.90;;;;;;6338979;22;20069;-66
2024/03/18 13:48:06;;;;;;;43.97;35.72;;;14.90;99.90;;;;;;6339014;22;20019;-65
2024/03/18 13:50:33;;;;;;;49.70;35.72;;;14.90;99.90;;;;;;6339471;22;20090;-65
2024/03/18 13:52:59;;;;;;;48.13;38.20;;;14.90;99.90;;;;;;6339239;22;19999;-65
2024/03/18 13:55:25;;;;;;;52.30;37.83;;;14.80;99.90;;;;;;6339018;22;20306;-66
2024/03/18 13:57:51;;;;;;;48.58;37.35;;;14.80;99.90;;;;;;6339336;22;20007;-65
2024/03/18 14:00:19;;;;;;;51.38;38.13;;;14.80;99.90;;;;;;6339773;22;20455;-66
2024/03/18 14:02:49;;;;;;;57.45;39.20;;;14.80;99.90;;;;;;6339939;22;20023;-64
2024/03/18 14:05:15;;;;;;;55.20;40.28;;;14.70;99.90;;;;;;6339994;22;19999;-65